sensor_id;sensor_type;location;lat;lon;timestamp;P1;durP1;ratioP1;P2;durP2;ratioP2
43152;SDS011;28756;49.064;9.290;2023-02-02T00:01:07;9.88;;;2.58;;
43152;SDS011;28756;49.064;9.290;2023-02-02T00:03:33;11.20;;;2.40;;
43152;SDS011;28756;49.064;9.290;2023-02-02T00:05:59;7.07;;;2.30;;
43152;SDS011;28756;49.064;9.290;2023-02-02T00:08:25;12.73;;;3.97;;
43152;SDS011;28756;49.064;9.290;2023-02-02T00:10:50;11.30;;;3.05;;
43152;SDS011;28756;49.064;9.290;2023-02-02T00:13:16;11.98;;;3.00;;
43152;SDS011;28756;49.064;9.290;2023-02-02T00:15:42;11.27;;;2.60;;
43152;SDS011;28756;49.064;9.290;2023-02-02T00:18:08;9.15;;;2.58;;
43152;SDS011;28756;49.064;9.290;2023-02-02T00:20:33;14.48;;;2.92;;
43152;SDS011;28756;49.064;9.290;2023-02-02T00:22:59;10.50;;;2.80;;
43152;SDS011;28756;49.064;9.290;2023-02-02T00:25:25;8.40;;;3.00;;
43152;SDS011;28756;49.064;9.290;2023-02-02T00:27:51;11.63;;;2.60;;
43152;SDS011;28756;49.064;9.290;2023-02-02T00:30:17;12.43;;;2.80;;
43152;SDS011;28756;49.064;9.290;2023-02-02T00:32:43;8.38;;;2.40;;
43152;SDS011;28756;49.064;9.290;2023-02-02T00:35:12;10.00;;;2.53;;
43152;SDS011;28756;49.064;9.290;2023-02-02T00:37:39;12.15;;;2.70;;
43152;SDS011;28756;49.064;9.290;2023-02-02T00:40:05;11.93;;;2.45;;
43152;SDS011;28756;49.064;9.290;2023-02-02T00:42:32;10.55;;;2.63;;
43152;SDS011;28756;49.064;9.290;2023-02-02T00:44:58;11.50;;;3.00;;
43152;SDS011;28756;49.064;9.290;2023-02-02T00:47:43;12.23;;;2.65;;
43152;SDS011;28756;49.064;9.290;2023-02-02T00:50:12;12.88;;;2.90;;
43152;SDS011;28756;49.064;9.290;2023-02-02T00:52:41;11.90;;;2.65;;
43152;SDS011;28756;49.064;9.290;2023-02-02T00:55:07;10.98;;;2.47;;
43152;SDS011;28756;49.064;9.290;2023-02-02T00:57:34;9.20;;;2.45;;
43152;SDS011;28756;49.064;9.290;2023-02-02T01:00:00;10.57;;;2.85;;
43152;SDS011;28756;49.064;9.290;2023-02-02T01:02:26;11.38;;;3.03;;
43152;SDS011;28756;49.064;9.290;2023-02-02T01:04:52;9.75;;;2.33;;
43152;SDS011;28756;49.064;9.290;2023-02-02T01:07:17;9.15;;;2.40;;
43152;SDS011;28756;49.064;9.290;2023-02-02T01:09:43;11.15;;;2.88;;
43152;SDS011;28756;49.064;9.290;2023-02-02T01:12:09;9.25;;;2.42;;
43152;SDS011;28756;49.064;9.290;2023-02-02T01:14:35;7.75;;;2.60;;
43152;SDS011;28756;49.064;9.290;2023-02-02T01:17:00;7.95;;;2.20;;
43152;SDS011;28756;49.064;9.290;2023-02-02T01:19:26;8.23;;;2.40;;
43152;SDS011;28756;49.064;9.290;2023-02-02T01:21:52;5.85;;;1.88;;
43152;SDS011;28756;49.064;9.290;2023-02-02T01:24:17;9.52;;;2.35;;
43152;SDS011;28756;49.064;9.290;2023-02-02T01:26:43;7.78;;;2.75;;
43152;SDS011;28756;49.064;9.290;2023-02-02T01:29:09;9.38;;;2.60;;
43152;SDS011;28756;49.064;9.290;2023-02-02T01:31:36;8.23;;;2.20;;
43152;SDS011;28756;49.064;9.290;2023-02-02T01:34:01;8.80;;;2.28;;
43152;SDS011;28756;49.064;9.290;2023-02-02T01:36:27;8.27;;;2.65;;
43152;SDS011;28756;49.064;9.290;2023-02-02T01:38:53;9.48;;;3.17;;
43152;SDS011;28756;49.064;9.290;2023-02-02T01:41:22;8.77;;;2.58;;
43152;SDS011;28756;49.064;9.290;2023-02-02T01:43:51;11.52;;;2.80;;
43152;SDS011;28756;49.064;9.290;2023-02-02T01:46:32;9.85;;;2.47;;
43152;SDS011;28756;49.064;9.290;2023-02-02T01:51:52;10.30;;;2.88;;
43152;SDS011;28756;49.064;9.290;2023-02-02T01:54:23;13.27;;;3.35;;
43152;SDS011;28756;49.064;9.290;2023-02-02T01:56:56;14.40;;;3.00;;
43152;SDS011;28756;49.064;9.290;2023-02-02T01:59:29;13.60;;;3.30;;
43152;SDS011;28756;49.064;9.290;2023-02-02T02:01:55;14.25;;;3.20;;
43152;SDS011;28756;49.064;9.290;2023-02-02T02:04:23;14.80;;;3.15;;
43152;SDS011;28756;49.064;9.290;2023-02-02T02:06:50;15.93;;;3.00;;
43152;SDS011;28756;49.064;9.290;2023-02-02T02:09:17;11.82;;;2.88;;
43152;SDS011;28756;49.064;9.290;2023-02-02T02:11:43;13.00;;;3.08;;
43152;SDS011;28756;49.064;9.290;2023-02-02T02:14:09;12.07;;;3.45;;
43152;SDS011;28756;49.064;9.290;2023-02-02T02:32:40;10.90;;;2.97;;
43152;SDS011;28756;49.064;9.290;2023-02-02T02:39:02;10.20;;;2.55;;
43152;SDS011;28756;49.064;9.290;2023-02-02T02:41:48;9.43;;;2.53;;
43152;SDS011;28756;49.064;9.290;2023-02-02T02:44:20;9.30;;;2.70;;
43152;SDS011;28756;49.064;9.290;2023-02-02T02:46:46;11.45;;;2.78;;
43152;SDS011;28756;49.064;9.290;2023-02-02T02:49:14;17.15;;;3.38;;
43152;SDS011;28756;49.064;9.290;2023-02-02T02:51:42;10.70;;;2.95;;
43152;SDS011;28756;49.064;9.290;2023-02-02T02:54:27;10.38;;;2.95;;
43152;SDS011;28756;49.064;9.290;2023-02-02T03:05:57;11.15;;;2.72;;
43152;SDS011;28756;49.064;9.290;2023-02-02T03:08:57;11.30;;;2.92;;
43152;SDS011;28756;49.064;9.290;2023-02-02T03:11:33;12.43;;;3.17;;
43152;SDS011;28756;49.064;9.290;2023-02-02T03:14:00;11.02;;;2.67;;
43152;SDS011;28756;49.064;9.290;2023-02-02T03:16:26;10.23;;;2.70;;
43152;SDS011;28756;49.064;9.290;2023-02-02T03:18:52;12.13;;;3.22;;
43152;SDS011;28756;49.064;9.290;2023-02-02T03:21:20;12.13;;;3.30;;
43152;SDS011;28756;49.064;9.290;2023-02-02T03:23:46;13.07;;;3.15;;
43152;SDS011;28756;49.064;9.290;2023-02-02T03:26:12;14.57;;;3.33;;
43152;SDS011;28756;49.064;9.290;2023-02-02T03:28:38;16.02;;;3.75;;
43152;SDS011;28756;49.064;9.290;2023-02-02T03:31:04;12.20;;;2.95;;
43152;SDS011;28756;49.064;9.290;2023-02-02T03:33:30;10.93;;;2.90;;
43152;SDS011;28756;49.064;9.290;2023-02-02T03:35:59;10.30;;;3.03;;
43152;SDS011;28756;49.064;9.290;2023-02-02T03:38:25;13.05;;;2.97;;
43152;SDS011;28756;49.064;9.290;2023-02-02T03:40:50;10.77;;;3.17;;
43152;SDS011;28756;49.064;9.290;2023-02-02T03:43:20;12.18;;;2.97;;
43152;SDS011;28756;49.064;9.290;2023-02-02T03:45:47;12.57;;;3.20;;
43152;SDS011;28756;49.064;9.290;2023-02-02T03:48:19;11.57;;;2.72;;
43152;SDS011;28756;49.064;9.290;2023-02-02T03:50:44;12.57;;;3.00;;
43152;SDS011;28756;49.064;9.290;2023-02-02T03:53:10;9.52;;;3.10;;
43152;SDS011;28756;49.064;9.290;2023-02-02T03:55:36;12.27;;;2.80;;
43152;SDS011;28756;49.064;9.290;2023-02-02T03:58:04;11.18;;;3.20;;
43152;SDS011;28756;49.064;9.290;2023-02-02T04:00:30;12.73;;;3.10;;
43152;SDS011;28756;49.064;9.290;2023-02-02T04:02:55;10.50;;;2.60;;
43152;SDS011;28756;49.064;9.290;2023-02-02T04:05:21;8.85;;;2.85;;
43152;SDS011;28756;49.064;9.290;2023-02-02T04:07:47;10.40;;;2.97;;
43152;SDS011;28756;49.064;9.290;2023-02-02T04:10:13;13.10;;;2.60;;
43152;SDS011;28756;49.064;9.290;2023-02-02T04:12:39;12.60;;;2.92;;
43152;SDS011;28756;49.064;9.290;2023-02-02T04:15:05;9.95;;;2.65;;
43152;SDS011;28756;49.064;9.290;2023-02-02T04:17:31;11.45;;;2.70;;
43152;SDS011;28756;49.064;9.290;2023-02-02T04:19:57;10.00;;;2.60;;
43152;SDS011;28756;49.064;9.290;2023-02-02T04:22:24;15.15;;;2.90;;
43152;SDS011;28756;49.064;9.290;2023-02-02T04:24:50;11.45;;;3.03;;
43152;SDS011;28756;49.064;9.290;2023-02-02T04:27:16;7.72;;;2.40;;
43152;SDS011;28756;49.064;9.290;2023-02-02T04:29:41;9.05;;;2.50;;
43152;SDS011;28756;49.064;9.290;2023-02-02T04:32:07;9.45;;;2.90;;
43152;SDS011;28756;49.064;9.290;2023-02-02T04:34:33;11.32;;;2.95;;
43152;SDS011;28756;49.064;9.290;2023-02-02T04:36:59;11.70;;;3.10;;
43152;SDS011;28756;49.064;9.290;2023-02-02T04:39:25;12.98;;;3.05;;
43152;SDS011;28756;49.064;9.290;2023-02-02T04:41:51;11.68;;;3.22;;
43152;SDS011;28756;49.064;9.290;2023-02-02T04:44:16;13.60;;;3.05;;
43152;SDS011;28756;49.064;9.290;2023-02-02T04:46:42;11.55;;;3.35;;
43152;SDS011;28756;49.064;9.290;2023-02-02T04:49:09;16.10;;;4.05;;
43152;SDS011;28756;49.064;9.290;2023-02-02T04:51:36;14.05;;;3.78;;
43152;SDS011;28756;49.064;9.290;2023-02-02T04:54:04;10.57;;;3.00;;
43152;SDS011;28756;49.064;9.290;2023-02-02T04:56:30;9.77;;;2.63;;
43152;SDS011;28756;49.064;9.290;2023-02-02T04:58:56;10.27;;;3.00;;
43152;SDS011;28756;49.064;9.290;2023-02-02T05:01:22;12.73;;;2.80;;
43152;SDS011;28756;49.064;9.290;2023-02-02T05:03:49;16.15;;;3.15;;
43152;SDS011;28756;49.064;9.290;2023-02-02T05:06:15;12.73;;;3.83;;
43152;SDS011;28756;49.064;9.290;2023-02-02T05:08:43;12.02;;;3.10;;
43152;SDS011;28756;49.064;9.290;2023-02-02T05:11:11;9.38;;;2.90;;
43152;SDS011;28756;49.064;9.290;2023-02-02T05:13:39;14.75;;;2.95;;
43152;SDS011;28756;49.064;9.290;2023-02-02T05:16:10;14.70;;;3.25;;
43152;SDS011;28756;49.064;9.290;2023-02-02T05:18:35;12.27;;;3.08;;
43152;SDS011;28756;49.064;9.290;2023-02-02T05:21:01;14.23;;;2.70;;
43152;SDS011;28756;49.064;9.290;2023-02-02T05:23:28;13.13;;;2.80;;
43152;SDS011;28756;49.064;9.290;2023-02-02T05:25:55;10.70;;;2.53;;
43152;SDS011;28756;49.064;9.290;2023-02-02T05:28:21;7.70;;;2.50;;
43152;SDS011;28756;49.064;9.290;2023-02-02T05:30:47;10.77;;;2.50;;
43152;SDS011;28756;49.064;9.290;2023-02-02T05:33:14;11.00;;;3.22;;
43152;SDS011;28756;49.064;9.290;2023-02-02T05:35:43;14.02;;;2.83;;
43152;SDS011;28756;49.064;9.290;2023-02-02T05:38:10;7.18;;;2.38;;
43152;SDS011;28756;49.064;9.290;2023-02-02T05:40:36;9.73;;;3.00;;
43152;SDS011;28756;49.064;9.290;2023-02-02T05:43:02;11.15;;;2.65;;
43152;SDS011;28756;49.064;9.290;2023-02-02T05:45:27;8.95;;;3.00;;
43152;SDS011;28756;49.064;9.290;2023-02-02T05:47:53;11.13;;;3.17;;
43152;SDS011;28756;49.064;9.290;2023-02-02T05:50:19;12.45;;;2.70;;
43152;SDS011;28756;49.064;9.290;2023-02-02T05:52:46;12.35;;;3.03;;
43152;SDS011;28756;49.064;9.290;2023-02-02T05:55:12;11.38;;;2.80;;
43152;SDS011;28756;49.064;9.290;2023-02-02T05:57:38;11.38;;;2.63;;
43152;SDS011;28756;49.064;9.290;2023-02-02T06:00:04;11.73;;;2.80;;
43152;SDS011;28756;49.064;9.290;2023-02-02T06:02:31;9.95;;;3.08;;
43152;SDS011;28756;49.064;9.290;2023-02-02T06:04:56;10.27;;;2.40;;
43152;SDS011;28756;49.064;9.290;2023-02-02T06:07:22;10.52;;;2.55;;
43152;SDS011;28756;49.064;9.290;2023-02-02T06:09:48;9.27;;;2.92;;
43152;SDS011;28756;49.064;9.290;2023-02-02T06:12:14;12.95;;;3.17;;
43152;SDS011;28756;49.064;9.290;2023-02-02T06:14:39;9.45;;;2.50;;
43152;SDS011;28756;49.064;9.290;2023-02-02T06:17:05;10.43;;;2.78;;
43152;SDS011;28756;49.064;9.290;2023-02-02T06:19:31;8.93;;;2.72;;
43152;SDS011;28756;49.064;9.290;2023-02-02T06:21:56;9.82;;;2.60;;
43152;SDS011;28756;49.064;9.290;2023-02-02T06:24:22;12.45;;;2.97;;
43152;SDS011;28756;49.064;9.290;2023-02-02T06:26:48;9.10;;;2.90;;
43152;SDS011;28756;49.064;9.290;2023-02-02T06:29:14;9.88;;;2.38;;
43152;SDS011;28756;49.064;9.290;2023-02-02T06:31:40;10.52;;;2.50;;
43152;SDS011;28756;49.064;9.290;2023-02-02T06:34:06;10.00;;;2.97;;
43152;SDS011;28756;49.064;9.290;2023-02-02T06:36:34;12.02;;;2.78;;
43152;SDS011;28756;49.064;9.290;2023-02-02T06:39:00;12.02;;;2.55;;
43152;SDS011;28756;49.064;9.290;2023-02-02T06:41:28;10.45;;;3.08;;
43152;SDS011;28756;49.064;9.290;2023-02-02T06:43:55;9.80;;;2.45;;
43152;SDS011;28756;49.064;9.290;2023-02-02T06:46:21;12.38;;;2.90;;
43152;SDS011;28756;49.064;9.290;2023-02-02T06:48:46;10.85;;;2.33;;
43152;SDS011;28756;49.064;9.290;2023-02-02T06:51:12;9.45;;;2.70;;
43152;SDS011;28756;49.064;9.290;2023-02-02T06:53:38;9.55;;;2.88;;
43152;SDS011;28756;49.064;9.290;2023-02-02T06:56:05;8.55;;;2.33;;
43152;SDS011;28756;49.064;9.290;2023-02-02T06:58:33;10.55;;;2.60;;
43152;SDS011;28756;49.064;9.290;2023-02-02T07:01:06;13.27;;;2.97;;
43152;SDS011;28756;49.064;9.290;2023-02-02T07:03:36;10.77;;;3.00;;
43152;SDS011;28756;49.064;9.290;2023-02-02T07:06:36;10.43;;;2.72;;
43152;SDS011;28756;49.064;9.290;2023-02-02T07:08:55;9.18;;;2.70;;
43152;SDS011;28756;49.064;9.290;2023-02-02T07:11:21;9.50;;;3.33;;
43152;SDS011;28756;49.064;9.290;2023-02-02T07:13:48;15.40;;;3.80;;
43152;SDS011;28756;49.064;9.290;2023-02-02T07:16:14;11.07;;;2.58;;
43152;SDS011;28756;49.064;9.290;2023-02-02T07:18:42;10.07;;;2.45;;
43152;SDS011;28756;49.064;9.290;2023-02-02T07:21:14;11.82;;;2.95;;
43152;SDS011;28756;49.064;9.290;2023-02-02T07:23:45;11.00;;;2.67;;
43152;SDS011;28756;49.064;9.290;2023-02-02T07:26:11;10.95;;;2.70;;
43152;SDS011;28756;49.064;9.290;2023-02-02T07:28:38;9.25;;;2.80;;
43152;SDS011;28756;49.064;9.290;2023-02-02T07:31:18;9.10;;;2.72;;
43152;SDS011;28756;49.064;9.290;2023-02-02T07:33:47;8.07;;;2.50;;
43152;SDS011;28756;49.064;9.290;2023-02-02T07:36:15;9.32;;;2.63;;
43152;SDS011;28756;49.064;9.290;2023-02-02T07:38:46;10.07;;;2.97;;
43152;SDS011;28756;49.064;9.290;2023-02-02T07:41:14;10.52;;;2.97;;
43152;SDS011;28756;49.064;9.290;2023-02-02T07:43:40;13.05;;;2.55;;
43152;SDS011;28756;49.064;9.290;2023-02-02T07:46:07;10.18;;;2.85;;
43152;SDS011;28756;49.064;9.290;2023-02-02T07:48:34;11.13;;;2.85;;
43152;SDS011;28756;49.064;9.290;2023-02-02T07:51:02;10.38;;;3.30;;
43152;SDS011;28756;49.064;9.290;2023-02-02T07:53:30;10.18;;;3.20;;
43152;SDS011;28756;49.064;9.290;2023-02-02T07:56:07;11.45;;;2.92;;
43152;SDS011;28756;49.064;9.290;2023-02-02T07:58:45;9.55;;;3.00;;
43152;SDS011;28756;49.064;9.290;2023-02-02T08:01:13;9.80;;;2.80;;
43152;SDS011;28756;49.064;9.290;2023-02-02T08:03:40;10.13;;;3.25;;
43152;SDS011;28756;49.064;9.290;2023-02-02T08:06:14;11.25;;;2.65;;
43152;SDS011;28756;49.064;9.290;2023-02-02T08:08:49;9.77;;;2.80;;
43152;SDS011;28756;49.064;9.290;2023-02-02T08:11:17;11.20;;;2.92;;
43152;SDS011;28756;49.064;9.290;2023-02-02T08:14:04;12.00;;;3.38;;
43152;SDS011;28756;49.064;9.290;2023-02-02T08:16:48;12.27;;;3.35;;
43152;SDS011;28756;49.064;9.290;2023-02-02T08:19:40;11.60;;;3.42;;
43152;SDS011;28756;49.064;9.290;2023-02-02T08:22:06;10.18;;;2.80;;
43152;SDS011;28756;49.064;9.290;2023-02-02T08:24:31;8.90;;;2.85;;
43152;SDS011;28756;49.064;9.290;2023-02-02T08:26:58;8.02;;;3.00;;
43152;SDS011;28756;49.064;9.290;2023-02-02T08:29:23;12.23;;;2.97;;
43152;SDS011;28756;49.064;9.290;2023-02-02T08:31:49;11.63;;;3.08;;
43152;SDS011;28756;49.064;9.290;2023-02-02T08:34:15;12.60;;;2.75;;
43152;SDS011;28756;49.064;9.290;2023-02-02T08:36:41;10.52;;;3.08;;
43152;SDS011;28756;49.064;9.290;2023-02-02T08:39:07;8.55;;;3.10;;
43152;SDS011;28756;49.064;9.290;2023-02-02T08:41:36;15.35;;;2.97;;
43152;SDS011;28756;49.064;9.290;2023-02-02T08:44:09;13.38;;;3.13;;
43152;SDS011;28756;49.064;9.290;2023-02-02T08:46:38;12.07;;;3.25;;
43152;SDS011;28756;49.064;9.290;2023-02-02T08:49:05;13.30;;;3.42;;
43152;SDS011;28756;49.064;9.290;2023-02-02T08:51:31;9.40;;;3.03;;
43152;SDS011;28756;49.064;9.290;2023-02-02T08:53:57;13.88;;;2.83;;
43152;SDS011;28756;49.064;9.290;2023-02-02T08:56:22;12.48;;;3.38;;
43152;SDS011;28756;49.064;9.290;2023-02-02T08:58:52;7.70;;;3.10;;
43152;SDS011;28756;49.064;9.290;2023-02-02T09:01:26;9.82;;;2.65;;
43152;SDS011;28756;49.064;9.290;2023-02-02T09:03:54;14.00;;;3.17;;
43152;SDS011;28756;49.064;9.290;2023-02-02T09:06:27;13.70;;;3.25;;
43152;SDS011;28756;49.064;9.290;2023-02-02T09:08:56;14.55;;;3.15;;
43152;SDS011;28756;49.064;9.290;2023-02-02T09:11:22;14.45;;;3.22;;
43152;SDS011;28756;49.064;9.290;2023-02-02T09:13:48;13.02;;;2.90;;
43152;SDS011;28756;49.064;9.290;2023-02-02T09:16:19;11.93;;;3.08;;
43152;SDS011;28756;49.064;9.290;2023-02-02T09:18:45;9.15;;;3.13;;
43152;SDS011;28756;49.064;9.290;2023-02-02T09:21:12;11.75;;;3.15;;
43152;SDS011;28756;49.064;9.290;2023-02-02T09:23:41;8.52;;;2.63;;
43152;SDS011;28756;49.064;9.290;2023-02-02T09:26:09;10.85;;;2.85;;
43152;SDS011;28756;49.064;9.290;2023-02-02T09:28:45;10.27;;;3.03;;
43152;SDS011;28756;49.064;9.290;2023-02-02T09:31:16;10.18;;;2.90;;
43152;SDS011;28756;49.064;9.290;2023-02-02T09:33:42;13.20;;;3.60;;
43152;SDS011;28756;49.064;9.290;2023-02-02T09:36:09;13.32;;;3.00;;
43152;SDS011;28756;49.064;9.290;2023-02-02T09:38:41;7.43;;;3.00;;
43152;SDS011;28756;49.064;9.290;2023-02-02T09:46:49;12.13;;;2.88;;
43152;SDS011;28756;49.064;9.290;2023-02-02T09:49:50;13.23;;;3.20;;
43152;SDS011;28756;49.064;9.290;2023-02-02T09:58:10;11.13;;;3.20;;
43152;SDS011;28756;49.064;9.290;2023-02-02T10:01:30;10.75;;;3.17;;
43152;SDS011;28756;49.064;9.290;2023-02-02T10:06:41;11.20;;;3.00;;
43152;SDS011;28756;49.064;9.290;2023-02-02T10:09:41;9.23;;;2.70;;
43152;SDS011;28756;49.064;9.290;2023-02-02T10:12:41;10.20;;;3.00;;
43152;SDS011;28756;49.064;9.290;2023-02-02T10:15:20;12.32;;;3.13;;
43152;SDS011;28756;49.064;9.290;2023-02-02T10:24:19;12.05;;;2.90;;
43152;SDS011;28756;49.064;9.290;2023-02-02T10:26:50;8.85;;;2.95;;
43152;SDS011;28756;49.064;9.290;2023-02-02T10:29:32;10.95;;;3.47;;
43152;SDS011;28756;49.064;9.290;2023-02-02T10:32:24;11.48;;;3.25;;
43152;SDS011;28756;49.064;9.290;2023-02-02T10:37:23;9.88;;;3.10;;
43152;SDS011;28756;49.064;9.290;2023-02-02T10:40:46;13.15;;;3.50;;
43152;SDS011;28756;49.064;9.290;2023-02-02T10:49:12;11.68;;;3.15;;
43152;SDS011;28756;49.064;9.290;2023-02-02T10:51:56;12.30;;;3.05;;
43152;SDS011;28756;49.064;9.290;2023-02-02T11:02:59;9.68;;;3.22;;
43152;SDS011;28756;49.064;9.290;2023-02-02T11:05:28;8.05;;;2.70;;
43152;SDS011;28756;49.064;9.290;2023-02-02T11:08:23;12.98;;;3.33;;
43152;SDS011;28756;49.064;9.290;2023-02-02T11:11:08;12.00;;;2.75;;
43152;SDS011;28756;49.064;9.290;2023-02-02T11:16:36;9.88;;;2.80;;
43152;SDS011;28756;49.064;9.290;2023-02-02T11:21:41;9.35;;;2.88;;
43152;SDS011;28756;49.064;9.290;2023-02-02T11:24:23;9.90;;;3.40;;
43152;SDS011;28756;49.064;9.290;2023-02-02T11:29:52;6.60;;;2.85;;
43152;SDS011;28756;49.064;9.290;2023-02-02T11:43:13;11.48;;;2.47;;
43152;SDS011;28756;49.064;9.290;2023-02-02T11:45:52;6.13;;;2.50;;
43152;SDS011;28756;49.064;9.290;2023-02-02T11:48:23;8.57;;;2.75;;
43152;SDS011;28756;49.064;9.290;2023-02-02T11:50:58;10.35;;;2.40;;
43152;SDS011;28756;49.064;9.290;2023-02-02T11:53:27;6.80;;;2.28;;
43152;SDS011;28756;49.064;9.290;2023-02-02T11:55:55;5.70;;;2.35;;
43152;SDS011;28756;49.064;9.290;2023-02-02T11:58:44;7.90;;;2.45;;
43152;SDS011;28756;49.064;9.290;2023-02-02T12:04:01;11.65;;;2.30;;
43152;SDS011;28756;49.064;9.290;2023-02-02T12:06:37;8.85;;;2.60;;
43152;SDS011;28756;49.064;9.290;2023-02-02T12:09:20;7.15;;;2.35;;
43152;SDS011;28756;49.064;9.290;2023-02-02T12:14:27;9.07;;;2.50;;
43152;SDS011;28756;49.064;9.290;2023-02-02T12:17:37;11.40;;;2.40;;
43152;SDS011;28756;49.064;9.290;2023-02-02T12:25:55;8.57;;;2.60;;
43152;SDS011;28756;49.064;9.290;2023-02-02T12:40:31;9.32;;;2.75;;
43152;SDS011;28756;49.064;9.290;2023-02-02T12:43:42;7.78;;;2.58;;
43152;SDS011;28756;49.064;9.290;2023-02-02T12:52:15;7.35;;;2.22;;
43152;SDS011;28756;49.064;9.290;2023-02-02T12:55:09;8.60;;;2.50;;
43152;SDS011;28756;49.064;9.290;2023-02-02T12:57:48;10.63;;;2.70;;
43152;SDS011;28756;49.064;9.290;2023-02-02T13:06:13;9.23;;;3.00;;
43152;SDS011;28756;49.064;9.290;2023-02-02T13:11:46;9.82;;;2.90;;
43152;SDS011;28756;49.064;9.290;2023-02-02T13:14:26;8.80;;;2.75;;
43152;SDS011;28756;49.064;9.290;2023-02-02T13:17:05;7.75;;;2.40;;
43152;SDS011;28756;49.064;9.290;2023-02-02T13:19:46;9.85;;;2.58;;
43152;SDS011;28756;49.064;9.290;2023-02-02T13:22:26;13.38;;;3.13;;
43152;SDS011;28756;49.064;9.290;2023-02-02T13:25:08;10.27;;;2.72;;
43152;SDS011;28756;49.064;9.290;2023-02-02T13:27:55;7.32;;;2.58;;
43152;SDS011;28756;49.064;9.290;2023-02-02T13:32:59;10.70;;;2.75;;
43152;SDS011;28756;49.064;9.290;2023-02-02T13:35:49;10.23;;;2.72;;
43152;SDS011;28756;49.064;9.290;2023-02-02T13:38:28;7.68;;;2.60;;
43152;SDS011;28756;49.064;9.290;2023-02-02T13:40:56;9.77;;;2.58;;
43152;SDS011;28756;49.064;9.290;2023-02-02T13:49:08;15.23;;;2.83;;
43152;SDS011;28756;49.064;9.290;2023-02-02T14:01:25;6.93;;;2.08;;
43152;SDS011;28756;49.064;9.290;2023-02-02T14:03:52;10.52;;;2.42;;
43152;SDS011;28756;49.064;9.290;2023-02-02T14:06:21;9.38;;;2.33;;
43152;SDS011;28756;49.064;9.290;2023-02-02T14:08:57;10.52;;;2.78;;
43152;SDS011;28756;49.064;9.290;2023-02-02T14:11:36;9.63;;;2.75;;
43152;SDS011;28756;49.064;9.290;2023-02-02T14:14:14;8.15;;;2.40;;
43152;SDS011;28756;49.064;9.290;2023-02-02T14:16:55;7.88;;;2.78;;
43152;SDS011;28756;49.064;9.290;2023-02-02T14:22:23;9.35;;;2.95;;
43152;SDS011;28756;49.064;9.290;2023-02-02T14:28:02;8.98;;;2.15;;
43152;SDS011;28756;49.064;9.290;2023-02-02T14:30:35;7.25;;;2.15;;
43152;SDS011;28756;49.064;9.290;2023-02-02T14:33:17;7.57;;;2.35;;
43152;SDS011;28756;49.064;9.290;2023-02-02T14:38:18;7.53;;;2.17;;
43152;SDS011;28756;49.064;9.290;2023-02-02T14:44:33;6.82;;;1.77;;
43152;SDS011;28756;49.064;9.290;2023-02-02T14:47:01;7.32;;;2.55;;
43152;SDS011;28756;49.064;9.290;2023-02-02T14:49:30;6.00;;;1.90;;
43152;SDS011;28756;49.064;9.290;2023-02-02T14:51:59;7.30;;;2.20;;
43152;SDS011;28756;49.064;9.290;2023-02-02T14:54:32;12.43;;;2.40;;
43152;SDS011;28756;49.064;9.290;2023-02-02T14:57:03;8.50;;;1.98;;
43152;SDS011;28756;49.064;9.290;2023-02-02T14:59:51;7.47;;;1.95;;
43152;SDS011;28756;49.064;9.290;2023-02-02T15:02:23;10.00;;;2.28;;
43152;SDS011;28756;49.064;9.290;2023-02-02T15:07:52;10.77;;;2.10;;
43152;SDS011;28756;49.064;9.290;2023-02-02T15:13:18;8.20;;;2.38;;
43152;SDS011;28756;49.064;9.290;2023-02-02T15:15:48;7.47;;;2.22;;
43152;SDS011;28756;49.064;9.290;2023-02-02T15:18:27;6.10;;;2.00;;
43152;SDS011;28756;49.064;9.290;2023-02-02T15:20:57;7.03;;;2.10;;
43152;SDS011;28756;49.064;9.290;2023-02-02T15:23:42;7.25;;;2.20;;
43152;SDS011;28756;49.064;9.290;2023-02-02T15:29:00;5.15;;;1.90;;
43152;SDS011;28756;49.064;9.290;2023-02-02T15:34:21;8.00;;;2.25;;
43152;SDS011;28756;49.064;9.290;2023-02-02T15:36:54;7.63;;;2.33;;
43152;SDS011;28756;49.064;9.290;2023-02-02T15:39:25;9.10;;;2.03;;
43152;SDS011;28756;49.064;9.290;2023-02-02T15:42:16;6.32;;;2.17;;
43152;SDS011;28756;49.064;9.290;2023-02-02T15:45:04;9.57;;;2.00;;
43152;SDS011;28756;49.064;9.290;2023-02-02T15:47:35;10.20;;;1.80;;
43152;SDS011;28756;49.064;9.290;2023-02-02T15:50:03;6.88;;;1.80;;
43152;SDS011;28756;49.064;9.290;2023-02-02T15:52:47;5.88;;;2.05;;
43152;SDS011;28756;49.064;9.290;2023-02-02T15:55:22;7.03;;;1.80;;
43152;SDS011;28756;49.064;9.290;2023-02-02T15:57:56;6.63;;;2.20;;
43152;SDS011;28756;49.064;9.290;2023-02-02T16:03:05;8.60;;;2.28;;
43152;SDS011;28756;49.064;9.290;2023-02-02T16:05:45;7.55;;;1.85;;
43152;SDS011;28756;49.064;9.290;2023-02-02T16:08:18;7.20;;;2.05;;
43152;SDS011;28756;49.064;9.290;2023-02-02T16:11:04;8.85;;;2.30;;
43152;SDS011;28756;49.064;9.290;2023-02-02T16:13:40;5.57;;;1.77;;
43152;SDS011;28756;49.064;9.290;2023-02-02T16:16:30;7.63;;;1.90;;
43152;SDS011;28756;49.064;9.290;2023-02-02T16:21:34;9.48;;;2.55;;
43152;SDS011;28756;49.064;9.290;2023-02-02T16:24:09;4.47;;;1.75;;
43152;SDS011;28756;49.064;9.290;2023-02-02T16:27:03;6.72;;;1.65;;
43152;SDS011;28756;49.064;9.290;2023-02-02T16:29:34;4.78;;;1.50;;
43152;SDS011;28756;49.064;9.290;2023-02-02T16:32:00;6.70;;;1.80;;
43152;SDS011;28756;49.064;9.290;2023-02-02T16:37:26;7.40;;;1.67;;
43152;SDS011;28756;49.064;9.290;2023-02-02T16:40:17;6.68;;;2.00;;
43152;SDS011;28756;49.064;9.290;2023-02-02T16:45:54;4.57;;;1.67;;
43152;SDS011;28756;49.064;9.290;2023-02-02T16:56:25;7.00;;;1.60;;
43152;SDS011;28756;49.064;9.290;2023-02-02T16:58:55;6.22;;;1.70;;
43152;SDS011;28756;49.064;9.290;2023-02-02T17:01:31;5.38;;;1.90;;
43152;SDS011;28756;49.064;9.290;2023-02-02T17:04:07;7.13;;;1.80;;
43152;SDS011;28756;49.064;9.290;2023-02-02T17:06:49;5.85;;;1.73;;
43152;SDS011;28756;49.064;9.290;2023-02-02T17:14:52;6.47;;;1.70;;
43152;SDS011;28756;49.064;9.290;2023-02-02T17:17:22;5.88;;;1.80;;
43152;SDS011;28756;49.064;9.290;2023-02-02T17:19:48;5.78;;;1.80;;
43152;SDS011;28756;49.064;9.290;2023-02-02T17:22:14;4.63;;;1.63;;
43152;SDS011;28756;49.064;9.290;2023-02-02T17:24:45;5.05;;;1.70;;
43152;SDS011;28756;49.064;9.290;2023-02-02T17:27:14;3.97;;;1.52;;
43152;SDS011;28756;49.064;9.290;2023-02-02T17:29:54;4.30;;;1.50;;
43152;SDS011;28756;49.064;9.290;2023-02-02T17:32:20;4.70;;;1.55;;
43152;SDS011;28756;49.064;9.290;2023-02-02T17:34:47;2.63;;;1.10;;
43152;SDS011;28756;49.064;9.290;2023-02-02T17:37:13;3.72;;;1.35;;
43152;SDS011;28756;49.064;9.290;2023-02-02T17:39:39;3.65;;;1.55;;
43152;SDS011;28756;49.064;9.290;2023-02-02T17:42:05;3.97;;;2.15;;
43152;SDS011;28756;49.064;9.290;2023-02-02T17:44:39;4.28;;;1.77;;
43152;SDS011;28756;49.064;9.290;2023-02-02T17:47:07;6.38;;;1.73;;
43152;SDS011;28756;49.064;9.290;2023-02-02T17:49:37;7.00;;;2.00;;
43152;SDS011;28756;49.064;9.290;2023-02-02T17:52:03;4.15;;;1.45;;
43152;SDS011;28756;49.064;9.290;2023-02-02T17:54:29;3.95;;;1.50;;
43152;SDS011;28756;49.064;9.290;2023-02-02T17:56:55;3.53;;;1.33;;
43152;SDS011;28756;49.064;9.290;2023-02-02T17:59:20;4.70;;;1.60;;
43152;SDS011;28756;49.064;9.290;2023-02-02T18:01:46;3.60;;;1.60;;
43152;SDS011;28756;49.064;9.290;2023-02-02T18:04:12;6.05;;;1.60;;
43152;SDS011;28756;49.064;9.290;2023-02-02T18:06:39;6.35;;;1.90;;
43152;SDS011;28756;49.064;9.290;2023-02-02T18:09:05;4.32;;;1.35;;
43152;SDS011;28756;49.064;9.290;2023-02-02T18:11:31;2.92;;;1.40;;
43152;SDS011;28756;49.064;9.290;2023-02-02T18:13:57;5.28;;;1.42;;
43152;SDS011;28756;49.064;9.290;2023-02-02T18:16:23;5.28;;;1.73;;